LIRQLIPX

Guest
Details From LIRQ - Firenze
To LIPX - Villafranca
Flight Number -
Tags Generated
Created
Modified
Stats Distance 96 nm / 178 km
Max Altitude 0 ft / 0 m
Waypoints 2
Social Downloads 1
Likes 0
Share VATSIM

Download

Looking for another format? Having issues loading an existing format? Contact us
Advertisement - Login to hide

Notes

Generated

Route

LIRQ LIPX

ID Type Via Altitude Latitude Longitude Leg Dist Tot Dist Heading (true) Name
O LIRQ APT - 0 ft / 0 m 43.80507˚ 11.19741˚ - 0 nm - -
O LIPX APT - 0 ft / 0 m 45.38732˚ 10.87633˚ 96 nm 96 nm 352° / 352° -

Altitude Profile

Advertisement - Login to hide

LIRQ

Details ICAO LIRQ (FLR)
Name Firenze
Region Italy
Timezone Europe/Rome (UTC+1.0)
Stats Elevation 142 ft / 43 m (AMSL)
Location 43.809984° 11.205118°
Runways 1
Magnetic Variation 2.874° E

METAR

LIRQ 110550Z 19008KT 160V220 9999 BKN030 BKN080 16/10 Q1000

Decode

TAF

TAF LIRQ 110500Z 1106/1206 24016G26KT 9999 SCT030

Decode

Departure Runways

ID Width Length Bearing (true) Bearing (mag) Surface Threshold Offset Overrun Length
05 98 ft / 30 m 5,420 ft / 1,652 m 48.52° 45.65° Asphalt 492 ft / 150 m 0 ft / 0 m
23 98 ft / 30 m 5,420 ft / 1,652 m 228.53° 225.66° Asphalt 2,287 ft / 697 m 0 ft / 0 m

LIPX

Details ICAO LIPX (VRN)
Name VILLAFRANCA
Region Italy
Timezone Europe/Rome (UTC+1.0)
Stats Elevation 239 ft / 73 m (AMSL)
Location 45.396942° 10.890418°
Runways 1
Magnetic Variation 2.859° E

METAR

LIPX 110550Z VRB01KT 4000 BR SCT020 BKN050 00/M01 Q1001 R04/6901

Decode

TAF

Not found

Destination Runways

ID Width Length Bearing (true) Bearing (mag) Surface Threshold Offset Overrun Length
04 148 ft / 45 m 10,072 ft / 3,070 m 45.79° 42.93° Asphalt 189 ft / 58 m 815 ft / 248 m
22 148 ft / 45 m 10,072 ft / 3,070 m 225.81° 222.95° Asphalt 1,345 ft / 410 m 189 ft / 58 m

Approach Navaids

Runway Type Ident Frequency Range Bearing (true) Bearing (mag) Slope Elevation
04 Localiser IVF 110.10 MHz 18 nm / 33 km 45.76° 42.90° - 248 ft / 76 m (AMSL)
04 Glidescope IVF 110.10 MHz 10 nm / 19 km 45.80° 42.94° 3.00° 272 ft / 83 m (AMSL)
04 DME IVF 110.10 MHz 18 nm / 33 km - - - 248 ft / 76 m (AMSL)

Popular Alternatives